sensor_id;sensor_type;location;lat;lon;timestamp;temperature;humidity
12634;DHT22;6382;48.614;8.880;2023-02-15T00:00:28;0.30;99.90
12634;DHT22;6382;48.614;8.880;2023-02-15T00:02:55;0.30;99.90
12634;DHT22;6382;48.614;8.880;2023-02-15T00:05:22;0.30;99.90
12634;DHT22;6382;48.614;8.880;2023-02-15T00:07:48;0.30;99.90
12634;DHT22;6382;48.614;8.880;2023-02-15T00:10:15;0.30;99.90
12634;DHT22;6382;48.614;8.880;2023-02-15T00:12:43;0.20;99.90
12634;DHT22;6382;48.614;8.880;2023-02-15T00:15:09;0.20;99.90
12634;DHT22;6382;48.614;8.880;2023-02-15T00:17:37;0.20;99.90
12634;DHT22;6382;48.614;8.880;2023-02-15T00:20:04;0.20;99.90
12634;DHT22;6382;48.614;8.880;2023-02-15T00:22:31;0.10;99.90
12634;DHT22;6382;48.614;8.880;2023-02-15T00:24:57;0.10;99.90
12634;DHT22;6382;48.614;8.880;2023-02-15T00:27:24;0.00;99.90
12634;DHT22;6382;48.614;8.880;2023-02-15T00:29:51;0.00;99.90
12634;DHT22;6382;48.614;8.880;2023-02-15T00:32:17;0.00;99.90
12634;DHT22;6382;48.614;8.880;2023-02-15T00:34:44;-0.10;99.90
12634;DHT22;6382;48.614;8.880;2023-02-15T00:37:11;-0.20;99.90
12634;DHT22;6382;48.614;8.880;2023-02-15T00:39:37;-0.20;99.90
12634;DHT22;6382;48.614;8.880;2023-02-15T00:42:04;-0.20;99.90
12634;DHT22;6382;48.614;8.880;2023-02-15T00:44:30;-0.30;99.90
12634;DHT22;6382;48.614;8.880;2023-02-15T00:46:57;-0.30;99.90
12634;DHT22;6382;48.614;8.880;2023-02-15T00:49:24;-0.30;99.90
12634;DHT22;6382;48.614;8.880;2023-02-15T00:51:50;-0.30;99.90
12634;DHT22;6382;48.614;8.880;2023-02-15T00:54:18;-0.30;99.90
12634;DHT22;6382;48.614;8.880;2023-02-15T00:56:44;-0.30;99.90
12634;DHT22;6382;48.614;8.880;2023-02-15T00:59:11;-0.40;99.90
12634;DHT22;6382;48.614;8.880;2023-02-15T01:01:38;-0.40;99.90
12634;DHT22;6382;48.614;8.880;2023-02-15T01:04:04;-0.40;99.90
12634;DHT22;6382;48.614;8.880;2023-02-15T01:06:31;-0.40;99.90
12634;DHT22;6382;48.614;8.880;2023-02-15T01:08:58;-0.40;99.90
12634;DHT22;6382;48.614;8.880;2023-02-15T01:11:24;-0.50;99.90
12634;DHT22;6382;48.614;8.880;2023-02-15T01:13:52;-0.50;99.90
12634;DHT22;6382;48.614;8.880;2023-02-15T01:16:19;-0.50;99.90
12634;DHT22;6382;48.614;8.880;2023-02-15T01:18:46;-0.60;99.90
12634;DHT22;6382;48.614;8.880;2023-02-15T01:21:13;-0.60;99.90
12634;DHT22;6382;48.614;8.880;2023-02-15T01:23:41;-0.20;99.90
12634;DHT22;6382;48.614;8.880;2023-02-15T01:26:08;-0.60;99.90
12634;DHT22;6382;48.614;8.880;2023-02-15T01:28:35;-0.60;99.90
12634;DHT22;6382;48.614;8.880;2023-02-15T01:31:09;-0.70;99.90
12634;DHT22;6382;48.614;8.880;2023-02-15T01:33:36;-0.70;99.90
12634;DHT22;6382;48.614;8.880;2023-02-15T01:36:03;-0.70;99.90
12634;DHT22;6382;48.614;8.880;2023-02-15T01:38:30;-0.70;99.90
12634;DHT22;6382;48.614;8.880;2023-02-15T01:40:56;-0.70;99.90
12634;DHT22;6382;48.614;8.880;2023-02-15T01:43:44;-0.70;99.90
12634;DHT22;6382;48.614;8.880;2023-02-15T01:46:11;-0.70;99.90
12634;DHT22;6382;48.614;8.880;2023-02-15T01:48:50;-0.60;99.90
12634;DHT22;6382;48.614;8.880;2023-02-15T01:51:18;-0.60;99.90
12634;DHT22;6382;48.614;8.880;2023-02-15T01:54:32;-0.60;99.90
12634;DHT22;6382;48.614;8.880;2023-02-15T01:56:33;-0.60;99.90
12634;DHT22;6382;48.614;8.880;2023-02-15T01:59:03;-0.60;99.90
12634;DHT22;6382;48.614;8.880;2023-02-15T02:01:31;-0.70;99.90
12634;DHT22;6382;48.614;8.880;2023-02-15T02:04:00;-0.70;99.90
12634;DHT22;6382;48.614;8.880;2023-02-15T02:06:28;-0.70;99.90
12634;DHT22;6382;48.614;8.880;2023-02-15T02:08:55;-0.70;99.90
12634;DHT22;6382;48.614;8.880;2023-02-15T02:11:22;-0.80;99.90
12634;DHT22;6382;48.614;8.880;2023-02-15T02:13:49;-0.80;99.90
12634;DHT22;6382;48.614;8.880;2023-02-15T02:35:10;-0.80;99.90
12634;DHT22;6382;48.614;8.880;2023-02-15T02:45:03;-0.90;99.90
12634;DHT22;6382;48.614;8.880;2023-02-15T02:50:03;-1.00;99.90
12634;DHT22;6382;48.614;8.880;2023-02-15T02:52:40;-1.00;99.90
12634;DHT22;6382;48.614;8.880;2023-02-15T02:55:18;-1.10;99.90
12634;DHT22;6382;48.614;8.880;2023-02-15T02:57:57;-1.10;99.90
12634;DHT22;6382;48.614;8.880;2023-02-15T03:00:27;-1.10;99.90
12634;DHT22;6382;48.614;8.880;2023-02-15T03:02:59;-1.10;99.90
12634;DHT22;6382;48.614;8.880;2023-02-15T03:05:31;-1.10;99.90
12634;DHT22;6382;48.614;8.880;2023-02-15T03:07:58;-1.10;99.90
12634;DHT22;6382;48.614;8.880;2023-02-15T03:10:27;-1.10;99.90
12634;DHT22;6382;48.614;8.880;2023-02-15T03:12:55;-1.20;99.90
12634;DHT22;6382;48.614;8.880;2023-02-15T03:15:25;-1.30;99.90
12634;DHT22;6382;48.614;8.880;2023-02-15T03:17:57;0.40;99.90
12634;DHT22;6382;48.614;8.880;2023-02-15T03:20:27;-1.30;99.90
12634;DHT22;6382;48.614;8.880;2023-02-15T03:22:59;-1.30;99.90
12634;DHT22;6382;48.614;8.880;2023-02-15T03:25:29;-1.30;99.90
12634;DHT22;6382;48.614;8.880;2023-02-15T03:27:59;-1.40;99.90
12634;DHT22;6382;48.614;8.880;2023-02-15T03:30:26;-1.40;99.90
12634;DHT22;6382;48.614;8.880;2023-02-15T03:32:55;-1.40;99.90
12634;DHT22;6382;48.614;8.880;2023-02-15T03:35:23;-1.40;99.90
12634;DHT22;6382;48.614;8.880;2023-02-15T03:37:53;-1.40;99.90
12634;DHT22;6382;48.614;8.880;2023-02-15T03:40:32;-1.50;99.90
12634;DHT22;6382;48.614;8.880;2023-02-15T03:45:52;-1.50;99.90
12634;DHT22;6382;48.614;8.880;2023-02-15T03:48:22;-1.60;99.90
12634;DHT22;6382;48.614;8.880;2023-02-15T03:50:51;-1.60;99.90
12634;DHT22;6382;48.614;8.880;2023-02-15T03:53:37;-1.60;99.90
12634;DHT22;6382;48.614;8.880;2023-02-15T03:56:05;-1.70;99.90
12634;DHT22;6382;48.614;8.880;2023-02-15T03:58:32;-1.70;99.90
12634;DHT22;6382;48.614;8.880;2023-02-15T04:01:20;-1.70;99.90
12634;DHT22;6382;48.614;8.880;2023-02-15T04:04:09;-1.70;99.90
12634;DHT22;6382;48.614;8.880;2023-02-15T04:06:38;1.30;99.90
12634;DHT22;6382;48.614;8.880;2023-02-15T04:09:04;-1.60;99.90
12634;DHT22;6382;48.614;8.880;2023-02-15T04:11:50;-1.60;99.90
12634;DHT22;6382;48.614;8.880;2023-02-15T04:14:16;-1.60;99.90
12634;DHT22;6382;48.614;8.880;2023-02-15T04:17:04;-1.60;99.90
12634;DHT22;6382;48.614;8.880;2023-02-15T04:19:31;-1.60;99.90
12634;DHT22;6382;48.614;8.880;2023-02-15T04:22:17;-1.60;99.90
12634;DHT22;6382;48.614;8.880;2023-02-15T04:25:02;-1.60;99.90
12634;DHT22;6382;48.614;8.880;2023-02-15T04:27:45;-1.60;99.90
12634;DHT22;6382;48.614;8.880;2023-02-15T04:30:13;-1.70;99.90
12634;DHT22;6382;48.614;8.880;2023-02-15T04:32:40;-1.70;99.90
12634;DHT22;6382;48.614;8.880;2023-02-15T04:35:07;-1.70;99.90
12634;DHT22;6382;48.614;8.880;2023-02-15T04:37:34;-1.00;99.90
12634;DHT22;6382;48.614;8.880;2023-02-15T04:40:01;-1.70;99.90
12634;DHT22;6382;48.614;8.880;2023-02-15T04:42:28;-1.70;99.90
12634;DHT22;6382;48.614;8.880;2023-02-15T04:44:54;-1.80;99.90
12634;DHT22;6382;48.614;8.880;2023-02-15T04:47:21;-1.80;99.90
12634;DHT22;6382;48.614;8.880;2023-02-15T04:49:48;-1.80;99.90
12634;DHT22;6382;48.614;8.880;2023-02-15T04:52:15;2.00;99.90
12634;DHT22;6382;48.614;8.880;2023-02-15T04:54:44;-1.80;99.90
12634;DHT22;6382;48.614;8.880;2023-02-15T04:57:11;-1.80;99.90
12634;DHT22;6382;48.614;8.880;2023-02-15T04:59:37;-1.80;99.90
12634;DHT22;6382;48.614;8.880;2023-02-15T05:02:04;-1.90;99.90
12634;DHT22;6382;48.614;8.880;2023-02-15T05:04:31;-1.90;99.90
12634;DHT22;6382;48.614;8.880;2023-02-15T05:06:57;-1.90;99.90
12634;DHT22;6382;48.614;8.880;2023-02-15T05:09:24;0.50;99.90
12634;DHT22;6382;48.614;8.880;2023-02-15T05:11:51;-1.30;99.90
12634;DHT22;6382;48.614;8.880;2023-02-15T05:14:17;-2.00;99.90
12634;DHT22;6382;48.614;8.880;2023-02-15T05:16:44;-2.00;99.90
12634;DHT22;6382;48.614;8.880;2023-02-15T05:19:11;-2.00;99.90
12634;DHT22;6382;48.614;8.880;2023-02-15T05:21:38;-2.10;99.90
12634;DHT22;6382;48.614;8.880;2023-02-15T05:24:04;-2.10;99.90
12634;DHT22;6382;48.614;8.880;2023-02-15T05:26:51;-2.10;99.90
12634;DHT22;6382;48.614;8.880;2023-02-15T05:29:36;-2.20;99.90
12634;DHT22;6382;48.614;8.880;2023-02-15T05:32:03;-1.90;99.90
12634;DHT22;6382;48.614;8.880;2023-02-15T05:34:30;-2.20;99.90
12634;DHT22;6382;48.614;8.880;2023-02-15T05:36:57;-1.20;99.90
12634;DHT22;6382;48.614;8.880;2023-02-15T05:39:24;-2.20;99.90
12634;DHT22;6382;48.614;8.880;2023-02-15T05:41:50;-2.20;99.90
12634;DHT22;6382;48.614;8.880;2023-02-15T05:44:17;-2.20;99.90
12634;DHT22;6382;48.614;8.880;2023-02-15T05:46:44;-2.20;99.90
12634;DHT22;6382;48.614;8.880;2023-02-15T05:49:10;-2.20;99.90
12634;DHT22;6382;48.614;8.880;2023-02-15T05:51:37;-2.20;99.90
12634;DHT22;6382;48.614;8.880;2023-02-15T05:54:04;-2.20;99.90
12634;DHT22;6382;48.614;8.880;2023-02-15T05:56:30;-2.10;99.90
12634;DHT22;6382;48.614;8.880;2023-02-15T05:58:57;-2.10;99.90
12634;DHT22;6382;48.614;8.880;2023-02-15T06:01:24;-2.20;99.90
12634;DHT22;6382;48.614;8.880;2023-02-15T06:03:51;-2.20;99.90
12634;DHT22;6382;48.614;8.880;2023-02-15T06:06:18;-2.20;99.90
12634;DHT22;6382;48.614;8.880;2023-02-15T06:08:45;-1.10;99.90
12634;DHT22;6382;48.614;8.880;2023-02-15T06:11:11;-2.20;99.90
12634;DHT22;6382;48.614;8.880;2023-02-15T06:13:38;-2.30;99.90
12634;DHT22;6382;48.614;8.880;2023-02-15T06:16:05;-2.30;99.90
12634;DHT22;6382;48.614;8.880;2023-02-15T06:18:32;-2.30;99.90
12634;DHT22;6382;48.614;8.880;2023-02-15T06:20:59;-2.30;99.90
12634;DHT22;6382;48.614;8.880;2023-02-15T06:23:26;-2.30;99.90
12634;DHT22;6382;48.614;8.880;2023-02-15T06:25:52;-2.30;99.90
12634;DHT22;6382;48.614;8.880;2023-02-15T06:28:19;-2.30;99.90
12634;DHT22;6382;48.614;8.880;2023-02-15T06:30:46;-2.30;99.90
12634;DHT22;6382;48.614;8.880;2023-02-15T06:33:13;-2.30;99.90
12634;DHT22;6382;48.614;8.880;2023-02-15T06:35:39;-2.30;99.90
12634;DHT22;6382;48.614;8.880;2023-02-15T06:38:06;-2.20;99.90
12634;DHT22;6382;48.614;8.880;2023-02-15T06:40:33;-2.20;99.90
12634;DHT22;6382;48.614;8.880;2023-02-15T06:42:59;-2.20;99.90
12634;DHT22;6382;48.614;8.880;2023-02-15T06:45:26;-2.20;99.90
12634;DHT22;6382;48.614;8.880;2023-02-15T06:47:53;1.10;99.90
12634;DHT22;6382;48.614;8.880;2023-02-15T06:50:19;-2.30;99.90
12634;DHT22;6382;48.614;8.880;2023-02-15T06:52:46;-2.30;99.90
12634;DHT22;6382;48.614;8.880;2023-02-15T06:55:13;-2.20;99.90
12634;DHT22;6382;48.614;8.880;2023-02-15T06:57:39;-2.20;99.90
12634;DHT22;6382;48.614;8.880;2023-02-15T07:00:06;-2.20;99.90
12634;DHT22;6382;48.614;8.880;2023-02-15T07:02:34;-2.20;99.90
12634;DHT22;6382;48.614;8.880;2023-02-15T07:05:01;-2.10;99.90
12634;DHT22;6382;48.614;8.880;2023-02-15T07:07:27;-2.20;99.90
12634;DHT22;6382;48.614;8.880;2023-02-15T07:09:54;-2.20;99.90
12634;DHT22;6382;48.614;8.880;2023-02-15T07:12:21;-2.20;99.90
12634;DHT22;6382;48.614;8.880;2023-02-15T07:15:07;-2.20;99.90
12634;DHT22;6382;48.614;8.880;2023-02-15T07:17:34;-2.20;99.90
12634;DHT22;6382;48.614;8.880;2023-02-15T07:20:06;-2.00;99.90
12634;DHT22;6382;48.614;8.880;2023-02-15T07:22:34;-2.00;99.90
12634;DHT22;6382;48.614;8.880;2023-02-15T07:25:06;-1.90;99.90
12634;DHT22;6382;48.614;8.880;2023-02-15T07:27:33;-1.90;99.90
12634;DHT22;6382;48.614;8.880;2023-02-15T07:30:00;-1.80;99.90
12634;DHT22;6382;48.614;8.880;2023-02-15T07:32:28;-1.60;99.90
12634;DHT22;6382;48.614;8.880;2023-02-15T07:34:56;-1.50;99.90
12634;DHT22;6382;48.614;8.880;2023-02-15T07:37:23;-1.50;99.90
12634;DHT22;6382;48.614;8.880;2023-02-15T07:39:50;1.20;99.90
12634;DHT22;6382;48.614;8.880;2023-02-15T07:42:16;-1.30;99.90
12634;DHT22;6382;48.614;8.880;2023-02-15T07:44:44;-1.20;99.90
12634;DHT22;6382;48.614;8.880;2023-02-15T07:47:10;-1.10;99.90
12634;DHT22;6382;48.614;8.880;2023-02-15T07:49:38;-1.00;99.90
12634;DHT22;6382;48.614;8.880;2023-02-15T07:52:05;-1.00;99.90
12634;DHT22;6382;48.614;8.880;2023-02-15T07:54:31;-0.90;99.90
12634;DHT22;6382;48.614;8.880;2023-02-15T07:56:58;-0.90;99.90
12634;DHT22;6382;48.614;8.880;2023-02-15T07:59:24;-0.80;99.90
12634;DHT22;6382;48.614;8.880;2023-02-15T08:01:51;-0.70;99.90
12634;DHT22;6382;48.614;8.880;2023-02-15T08:04:20;-0.60;99.90
12634;DHT22;6382;48.614;8.880;2023-02-15T08:06:47;-0.60;99.90
12634;DHT22;6382;48.614;8.880;2023-02-15T08:09:13;-0.50;99.90
12634;DHT22;6382;48.614;8.880;2023-02-15T08:11:40;-0.40;99.90
12634;DHT22;6382;48.614;8.880;2023-02-15T08:16:34;0.30;99.90
12634;DHT22;6382;48.614;8.880;2023-02-15T08:19:09;-0.20;99.90
12634;DHT22;6382;48.614;8.880;2023-02-15T08:21:37;-0.20;99.90
12634;DHT22;6382;48.614;8.880;2023-02-15T08:24:04;-0.10;99.90
12634;DHT22;6382;48.614;8.880;2023-02-15T08:26:31;-0.10;99.90
12634;DHT22;6382;48.614;8.880;2023-02-15T08:28:58;0.00;99.90
12634;DHT22;6382;48.614;8.880;2023-02-15T08:31:25;0.10;99.90
12634;DHT22;6382;48.614;8.880;2023-02-15T08:33:53;0.10;99.90
12634;DHT22;6382;48.614;8.880;2023-02-15T08:36:21;0.20;99.90
12634;DHT22;6382;48.614;8.880;2023-02-15T08:38:48;0.20;99.90
12634;DHT22;6382;48.614;8.880;2023-02-15T08:41:16;0.20;99.90
12634;DHT22;6382;48.614;8.880;2023-02-15T08:43:43;0.30;99.90
12634;DHT22;6382;48.614;8.880;2023-02-15T08:46:10;0.40;99.90
12634;DHT22;6382;48.614;8.880;2023-02-15T08:48:37;0.40;99.90
12634;DHT22;6382;48.614;8.880;2023-02-15T08:51:08;0.50;99.90
12634;DHT22;6382;48.614;8.880;2023-02-15T08:53:37;0.50;99.90
12634;DHT22;6382;48.614;8.880;2023-02-15T08:56:04;0.60;99.90
12634;DHT22;6382;48.614;8.880;2023-02-15T08:58:31;0.60;99.90
12634;DHT22;6382;48.614;8.880;2023-02-15T09:00:58;0.70;99.90
12634;DHT22;6382;48.614;8.880;2023-02-15T09:03:25;0.80;99.90
12634;DHT22;6382;48.614;8.880;2023-02-15T09:05:56;0.90;99.90
12634;DHT22;6382;48.614;8.880;2023-02-15T09:08:22;1.00;99.90
12634;DHT22;6382;48.614;8.880;2023-02-15T09:10:49;1.10;99.90
12634;DHT22;6382;48.614;8.880;2023-02-15T09:13:15;1.20;99.90
12634;DHT22;6382;48.614;8.880;2023-02-15T09:15:42;1.30;99.90
12634;DHT22;6382;48.614;8.880;2023-02-15T09:18:09;1.30;99.90
12634;DHT22;6382;48.614;8.880;2023-02-15T09:20:35;1.40;99.90
12634;DHT22;6382;48.614;8.880;2023-02-15T09:23:02;1.50;99.90
12634;DHT22;6382;48.614;8.880;2023-02-15T09:25:29;1.50;99.90
12634;DHT22;6382;48.614;8.880;2023-02-15T09:27:56;1.60;99.90
12634;DHT22;6382;48.614;8.880;2023-02-15T09:30:22;1.70;99.90
12634;DHT22;6382;48.614;8.880;2023-02-15T09:32:49;1.80;99.90
12634;DHT22;6382;48.614;8.880;2023-02-15T09:35:16;2.00;99.90
12634;DHT22;6382;48.614;8.880;2023-02-15T09:37:43;2.00;99.90
12634;DHT22;6382;48.614;8.880;2023-02-15T09:40:11;2.20;99.90
12634;DHT22;6382;48.614;8.880;2023-02-15T09:42:45;2.20;99.90
12634;DHT22;6382;48.614;8.880;2023-02-15T09:47:55;2.30;99.90
12634;DHT22;6382;48.614;8.880;2023-02-15T09:53:05;2.70;99.90
12634;DHT22;6382;48.614;8.880;2023-02-15T09:58:28;2.90;99.90
12634;DHT22;6382;48.614;8.880;2023-02-15T10:14:00;3.70;99.90
12634;DHT22;6382;48.614;8.880;2023-02-15T10:16:46;3.90;99.90
12634;DHT22;6382;48.614;8.880;2023-02-15T10:27:13;4.70;99.90
12634;DHT22;6382;48.614;8.880;2023-02-15T10:29:45;4.90;99.90
12634;DHT22;6382;48.614;8.880;2023-02-15T10:35:00;5.10;99.90
12634;DHT22;6382;48.614;8.880;2023-02-15T10:37:31;5.20;99.90
12634;DHT22;6382;48.614;8.880;2023-02-15T10:42:52;5.50;99.90
12634;DHT22;6382;48.614;8.880;2023-02-15T10:47:57;5.70;99.90
12634;DHT22;6382;48.614;8.880;2023-02-15T10:50:34;5.80;99.90
12634;DHT22;6382;48.614;8.880;2023-02-15T10:53:19;6.00;99.90
12634;DHT22;6382;48.614;8.880;2023-02-15T10:59:00;6.10;99.90
12634;DHT22;6382;48.614;8.880;2023-02-15T11:01:34;6.20;99.90
12634;DHT22;6382;48.614;8.880;2023-02-15T11:06:29;6.40;99.90
12634;DHT22;6382;48.614;8.880;2023-02-15T11:08:57;6.40;99.90
12634;DHT22;6382;48.614;8.880;2023-02-15T11:11:27;9.00;99.90
12634;DHT22;6382;48.614;8.880;2023-02-15T11:13:59;6.60;99.90
12634;DHT22;6382;48.614;8.880;2023-02-15T11:16:32;6.70;99.90
12634;DHT22;6382;48.614;8.880;2023-02-15T11:19:01;6.80;99.90
12634;DHT22;6382;48.614;8.880;2023-02-15T11:21:34;7.00;99.90
12634;DHT22;6382;48.614;8.880;2023-02-15T11:24:12;7.00;99.90
12634;DHT22;6382;48.614;8.880;2023-02-15T11:26:41;7.10;99.90
12634;DHT22;6382;48.614;8.880;2023-02-15T11:29:22;7.20;99.90
12634;DHT22;6382;48.614;8.880;2023-02-15T11:31:51;7.20;99.90
12634;DHT22;6382;48.614;8.880;2023-02-15T11:34:33;9.50;99.90
12634;DHT22;6382;48.614;8.880;2023-02-15T11:37:01;7.50;99.90
12634;DHT22;6382;48.614;8.880;2023-02-15T11:39:30;7.60;99.90
12634;DHT22;6382;48.614;8.880;2023-02-15T11:42:02;9.60;99.90
12634;DHT22;6382;48.614;8.880;2023-02-15T11:46:59;7.70;99.90
12634;DHT22;6382;48.614;8.880;2023-02-15T11:49:34;10.80;99.90
12634;DHT22;6382;48.614;8.880;2023-02-15T11:52:02;7.80;99.90
12634;DHT22;6382;48.614;8.880;2023-02-15T11:54:32;7.80;99.90
12634;DHT22;6382;48.614;8.880;2023-02-15T11:57:02;10.00;99.90
12634;DHT22;6382;48.614;8.880;2023-02-15T11:59:32;7.90;99.90
12634;DHT22;6382;48.614;8.880;2023-02-15T12:01:59;8.00;99.90
12634;DHT22;6382;48.614;8.880;2023-02-15T12:04:30;8.00;99.90
12634;DHT22;6382;48.614;8.880;2023-02-15T12:07:01;8.10;99.90
12634;DHT22;6382;48.614;8.880;2023-02-15T12:09:31;9.50;99.90
12634;DHT22;6382;48.614;8.880;2023-02-15T12:14:49;8.40;99.90
12634;DHT22;6382;48.614;8.880;2023-02-15T12:17:16;8.50;99.90
12634;DHT22;6382;48.614;8.880;2023-02-15T12:19:43;8.60;99.90
12634;DHT22;6382;48.614;8.880;2023-02-15T12:22:25;8.70;99.90
12634;DHT22;6382;48.614;8.880;2023-02-15T12:24:52;8.70;99.90
12634;DHT22;6382;48.614;8.880;2023-02-15T12:27:24;8.80;99.90
12634;DHT22;6382;48.614;8.880;2023-02-15T12:32:28;9.10;99.90
12634;DHT22;6382;48.614;8.880;2023-02-15T12:34:59;9.20;99.90
12634;DHT22;6382;48.614;8.880;2023-02-15T12:37:28;9.30;99.90
12634;DHT22;6382;48.614;8.880;2023-02-15T12:39:59;9.30;99.90
12634;DHT22;6382;48.614;8.880;2023-02-15T12:42:27;9.50;99.90
12634;DHT22;6382;48.614;8.880;2023-02-15T12:44:59;9.80;99.90
12634;DHT22;6382;48.614;8.880;2023-02-15T12:47:30;10.10;99.90
12634;DHT22;6382;48.614;8.880;2023-02-15T12:50:05;10.30;99.90
12634;DHT22;6382;48.614;8.880;2023-02-15T12:52:37;10.50;99.90
12634;DHT22;6382;48.614;8.880;2023-02-15T12:55:19;10.80;99.90
12634;DHT22;6382;48.614;8.880;2023-02-15T12:57:46;10.90;99.90
12634;DHT22;6382;48.614;8.880;2023-02-15T13:02:48;11.30;99.90
12634;DHT22;6382;48.614;8.880;2023-02-15T13:08:11;11.60;99.90
12634;DHT22;6382;48.614;8.880;2023-02-15T13:10:51;11.90;99.90
12634;DHT22;6382;48.614;8.880;2023-02-15T13:13:19;12.00;99.90
12634;DHT22;6382;48.614;8.880;2023-02-15T13:15:53;12.80;99.90
12634;DHT22;6382;48.614;8.880;2023-02-15T13:20:54;12.20;99.90
12634;DHT22;6382;48.614;8.880;2023-02-15T13:25:51;12.20;99.90
12634;DHT22;6382;48.614;8.880;2023-02-15T13:28:18;15.30;99.90
12634;DHT22;6382;48.614;8.880;2023-02-15T13:30:46;12.20;99.90
12634;DHT22;6382;48.614;8.880;2023-02-15T13:33:16;12.30;99.90
12634;DHT22;6382;48.614;8.880;2023-02-15T13:35:50;13.80;99.90
12634;DHT22;6382;48.614;8.880;2023-02-15T13:38:22;12.40;99.90
12634;DHT22;6382;48.614;8.880;2023-02-15T13:40:58;15.40;99.90
12634;DHT22;6382;48.614;8.880;2023-02-15T13:57:12;12.90;99.90
12634;DHT22;6382;48.614;8.880;2023-02-15T13:59:46;13.00;99.90
12634;DHT22;6382;48.614;8.880;2023-02-15T14:04:50;13.10;99.90
12634;DHT22;6382;48.614;8.880;2023-02-15T14:07:22;13.20;99.50
12634;DHT22;6382;48.614;8.880;2023-02-15T14:28:05;13.20;97.30
12634;DHT22;6382;48.614;8.880;2023-02-15T14:30:36;13.10;97.50
12634;DHT22;6382;48.614;8.880;2023-02-15T14:33:07;16.20;98.40
12634;DHT22;6382;48.614;8.880;2023-02-15T14:35:34;13.10;97.50
12634;DHT22;6382;48.614;8.880;2023-02-15T14:48:49;13.10;99.60
12634;DHT22;6382;48.614;8.880;2023-02-15T14:52:18;15.70;99.90
12634;DHT22;6382;48.614;8.880;2023-02-15T14:56:43;13.10;99.90
12634;DHT22;6382;48.614;8.880;2023-02-15T14:59:19;13.20;99.90
12634;DHT22;6382;48.614;8.880;2023-02-15T15:01:51;13.00;99.90
12634;DHT22;6382;48.614;8.880;2023-02-15T15:04:38;13.00;99.90
12634;DHT22;6382;48.614;8.880;2023-02-15T15:09:42;12.80;99.90
12634;DHT22;6382;48.614;8.880;2023-02-15T15:12:15;15.00;99.90
12634;DHT22;6382;48.614;8.880;2023-02-15T15:15:01;12.80;99.90
12634;DHT22;6382;48.614;8.880;2023-02-15T15:22:25;15.00;99.90
12634;DHT22;6382;48.614;8.880;2023-02-15T15:43:45;12.20;99.90
12634;DHT22;6382;48.614;8.880;2023-02-15T15:46:33;12.10;99.90
12634;DHT22;6382;48.614;8.880;2023-02-15T15:49:07;12.00;99.90
12634;DHT22;6382;48.614;8.880;2023-02-15T15:51:37;11.90;99.90
12634;DHT22;6382;48.614;8.880;2023-02-15T15:54:05;15.50;99.90
12634;DHT22;6382;48.614;8.880;2023-02-15T15:56:33;11.80;99.90
12634;DHT22;6382;48.614;8.880;2023-02-15T15:59:01;15.10;99.90
12634;DHT22;6382;48.614;8.880;2023-02-15T16:01:30;13.60;99.90
12634;DHT22;6382;48.614;8.880;2023-02-15T16:03:58;11.40;99.90
12634;DHT22;6382;48.614;8.880;2023-02-15T16:06:29;11.40;99.90
12634;DHT22;6382;48.614;8.880;2023-02-15T16:08:56;11.20;99.90
12634;DHT22;6382;48.614;8.880;2023-02-15T16:11:24;12.90;99.90
12634;DHT22;6382;48.614;8.880;2023-02-15T16:13:51;11.00;99.90
12634;DHT22;6382;48.614;8.880;2023-02-15T16:16:25;11.00;99.90
12634;DHT22;6382;48.614;8.880;2023-02-15T16:18:55;10.90;99.90
12634;DHT22;6382;48.614;8.880;2023-02-15T16:21:27;12.10;99.90
12634;DHT22;6382;48.614;8.880;2023-02-15T16:23:59;10.70;99.90
12634;DHT22;6382;48.614;8.880;2023-02-15T16:26:44;10.60;99.90
12634;DHT22;6382;48.614;8.880;2023-02-15T16:29:15;10.40;99.90
12634;DHT22;6382;48.614;8.880;2023-02-15T16:31:42;10.30;99.90
12634;DHT22;6382;48.614;8.880;2023-02-15T16:34:09;10.10;99.90
12634;DHT22;6382;48.614;8.880;2023-02-15T16:36:42;10.00;99.90
12634;DHT22;6382;48.614;8.880;2023-02-15T16:39:16;9.80;99.90
12634;DHT22;6382;48.614;8.880;2023-02-15T16:41:44;9.60;99.90
12634;DHT22;6382;48.614;8.880;2023-02-15T16:44:16;9.60;99.90
12634;DHT22;6382;48.614;8.880;2023-02-15T16:46:44;9.50;99.90
12634;DHT22;6382;48.614;8.880;2023-02-15T16:49:27;9.40;99.90
12634;DHT22;6382;48.614;8.880;2023-02-15T16:52:01;9.30;99.90
12634;DHT22;6382;48.614;8.880;2023-02-15T16:54:29;9.20;99.90
12634;DHT22;6382;48.614;8.880;2023-02-15T16:56:55;11.20;99.90
12634;DHT22;6382;48.614;8.880;2023-02-15T17:01:58;8.90;99.90
12634;DHT22;6382;48.614;8.880;2023-02-15T17:09:24;8.30;99.90
12634;DHT22;6382;48.614;8.880;2023-02-15T17:11:51;8.10;99.90
12634;DHT22;6382;48.614;8.880;2023-02-15T17:14:19;7.90;99.90
12634;DHT22;6382;48.614;8.880;2023-02-15T17:16:48;7.90;99.90
12634;DHT22;6382;48.614;8.880;2023-02-15T17:21:50;7.60;99.90
12634;DHT22;6382;48.614;8.880;2023-02-15T17:24:18;7.40;99.90
12634;DHT22;6382;48.614;8.880;2023-02-15T17:26:54;7.10;99.90
12634;DHT22;6382;48.614;8.880;2023-02-15T17:29:31;6.90;99.90
12634;DHT22;6382;48.614;8.880;2023-02-15T17:32:00;6.90;99.90
12634;DHT22;6382;48.614;8.880;2023-02-15T17:39:50;6.70;99.90
12634;DHT22;6382;48.614;8.880;2023-02-15T17:42:17;6.70;99.90
12634;DHT22;6382;48.614;8.880;2023-02-15T17:44:44;6.60;99.90
12634;DHT22;6382;48.614;8.880;2023-02-15T17:47:18;6.50;99.90
12634;DHT22;6382;48.614;8.880;2023-02-15T17:49:46;6.30;99.90
12634;DHT22;6382;48.614;8.880;2023-02-15T17:52:15;6.10;99.90
12634;DHT22;6382;48.614;8.880;2023-02-15T17:54:43;5.80;99.90
12634;DHT22;6382;48.614;8.880;2023-02-15T17:57:29;5.70;99.90
12634;DHT22;6382;48.614;8.880;2023-02-15T17:59:56;5.50;99.90
12634;DHT22;6382;48.614;8.880;2023-02-15T18:02:42;5.40;99.90
12634;DHT22;6382;48.614;8.880;2023-02-15T18:05:27;5.10;99.90
12634;DHT22;6382;48.614;8.880;2023-02-15T18:08:13;4.80;99.90
12634;DHT22;6382;48.614;8.880;2023-02-15T18:10:59;4.60;99.90
12634;DHT22;6382;48.614;8.880;2023-02-15T18:13:45;4.50;99.90
12634;DHT22;6382;48.614;8.880;2023-02-15T18:16:12;4.40;99.90
12634;DHT22;6382;48.614;8.880;2023-02-15T18:18:40;4.40;99.90
12634;DHT22;6382;48.614;8.880;2023-02-15T18:21:06;4.30;99.90
12634;DHT22;6382;48.614;8.880;2023-02-15T18:23:36;4.30;99.90
12634;DHT22;6382;48.614;8.880;2023-02-15T18:26:03;4.20;99.90
12634;DHT22;6382;48.614;8.880;2023-02-15T18:28:30;4.20;99.90
12634;DHT22;6382;48.614;8.880;2023-02-15T18:30:58;4.20;99.90
12634;DHT22;6382;48.614;8.880;2023-02-15T18:33:32;4.20;99.90
12634;DHT22;6382;48.614;8.880;2023-02-15T18:35:59;4.00;99.90
12634;DHT22;6382;48.614;8.880;2023-02-15T18:38:29;3.90;99.90
12634;DHT22;6382;48.614;8.880;2023-02-15T18:40:56;3.70;99.90
12634;DHT22;6382;48.614;8.880;2023-02-15T18:43:23;3.60;99.90
12634;DHT22;6382;48.614;8.880;2023-02-15T18:45:50;3.50;99.90
12634;DHT22;6382;48.614;8.880;2023-02-15T18:48:16;3.40;99.90
12634;DHT22;6382;48.614;8.880;2023-02-15T18:50:43;3.30;99.90
12634;DHT22;6382;48.614;8.880;2023-02-15T18:53:19;3.20;99.90
12634;DHT22;6382;48.614;8.880;2023-02-15T18:55:46;3.10;99.90
12634;DHT22;6382;48.614;8.880;2023-02-15T18:58:16;3.00;99.90
12634;DHT22;6382;48.614;8.880;2023-02-15T19:00:43;3.00;99.90
12634;DHT22;6382;48.614;8.880;2023-02-15T19:03:14;2.90;99.90
12634;DHT22;6382;48.614;8.880;2023-02-15T19:05:42;2.80;99.90
12634;DHT22;6382;48.614;8.880;2023-02-15T19:08:15;2.80;99.90
12634;DHT22;6382;48.614;8.880;2023-02-15T19:10:42;2.80;99.90
12634;DHT22;6382;48.614;8.880;2023-02-15T19:13:09;2.80;99.90